Time;durP1;ratioP1;P1;durP2;ratioP2;P2;SDS_P1;SDS_P2;PMS_P1;PMS_P2;Temp;Humidity;BMP_temperature;BMP_pressure;BME280_temperature;BME280_humidity;BME280_pressure;Samples;Min_cycle;Max_cycle;Signal;HPM_P1;HPM_P2
2022/07/10 02:26:49;;;;;;;19.30;18.00;;;17.30;99.90;;;;;;5506756;23;20487;-72
2022/07/10 02:29:15;;;;;;;18.37;17.47;;;17.40;99.90;;;;;;4974056;28;20447;-71
2022/07/10 02:31:42;;;;;;;18.67;17.67;;;17.40;99.90;;;;;;4974112;28;20486;-72
2022/07/10 02:34:09;;;;;;;18.40;17.47;;;17.40;99.90;;;;;;4973960;28;20455;-71
2022/07/10 02:36:36;;;;;;;18.50;17.53;;;17.50;99.90;;;;;;4973991;28;20470;-72
2022/07/10 02:39:03;;;;;;;17.70;16.90;;;17.50;99.90;;;;;;4974313;28;20460;-71
2022/07/10 02:41:30;;;;;;;19.27;18.17;;;17.50;99.90;;;;;;4973970;28;20458;-71
2022/07/10 02:43:58;;;;;;;19.80;18.70;;;17.50;99.90;;;;;;4972678;28;20825;-71
2022/07/10 02:46:25;;;;;;;19.53;18.53;;;17.60;99.90;;;;;;4973797;28;21194;-72
2022/07/10 02:48:52;;;;;;;20.67;19.30;;;17.60;99.90;;;;;;4973628;28;20451;-72
2022/07/10 02:51:19;;;;;;;20.63;19.33;;;17.60;99.90;;;;;;4972269;28;20451;-71
2022/07/10 02:53:45;;;;;;;20.70;19.60;;;17.60;99.90;;;;;;4973693;28;20455;-71
2022/07/10 02:56:12;;;;;;;21.90;20.50;;;17.60;99.90;;;;;;4973557;28;20463;-72
2022/07/10 02:58:39;;;;;;;22.63;21.13;;;17.60;99.90;;;;;;4973539;28;20455;-72
2022/07/10 03:01:08;;;;;;;21.50;20.00;;;17.50;99.90;;;;;;4973847;28;20493;-72
2022/07/10 03:03:35;;;;;;;21.63;20.37;;;17.50;99.90;;;;;;4973657;28;20586;-71
2022/07/10 03:06:01;;;;;;;20.80;19.67;;;17.40;99.90;;;;;;4973751;28;20455;-72
2022/07/10 03:08:28;;;;;;;23.97;22.47;;;17.50;99.90;;;;;;4973458;28;20458;-72
2022/07/10 03:10:55;;;;;;;21.87;20.47;;;17.50;99.90;;;;;;4973328;28;20478;-72
2022/07/10 03:13:21;;;;;;;22.07;20.70;;;17.50;99.90;;;;;;4973331;28;20475;-70
2022/07/10 03:15:48;;;;;;;22.87;21.40;;;17.50;99.90;;;;;;4973487;28;20492;-71
2022/07/10 03:18:16;;;;;;;22.97;21.67;;;17.60;99.90;;;;;;4973296;28;20476;-70
2022/07/10 03:20:43;;;;;;;22.70;21.30;;;17.60;99.90;;;;;;4973114;28;20456;-71
2022/07/10 03:23:10;;;;;;;21.90;20.70;;;17.70;99.90;;;;;;4973127;28;20545;-71
2022/07/10 03:25:37;;;;;;;23.17;21.67;;;17.60;99.90;;;;;;4972823;28;20535;-70
2022/07/10 03:28:03;;;;;;;22.90;21.30;;;17.50;99.90;;;;;;4973220;28;20455;-70
2022/07/10 03:30:30;;;;;;;23.33;21.87;;;17.50;99.90;;;;;;4973087;28;20452;-70
2022/07/10 03:32:57;;;;;;;24.60;22.93;;;17.40;99.90;;;;;;4972556;28;20459;-70
2022/07/10 03:35:26;;;;;;;22.23;21.03;;;17.30;99.90;;;;;;4972279;28;20459;-70
2022/07/10 03:37:52;;;;;;;21.00;19.70;;;17.20;99.90;;;;;;4972781;28;21008;-70
2022/07/10 03:40:20;;;;;;;22.70;21.30;;;17.10;99.90;;;;;;4972945;28;20946;-70
2022/07/10 03:42:46;;;;;;;22.93;21.53;;;17.10;99.90;;;;;;4972847;28;21047;-69
2022/07/10 03:45:13;;;;;;;23.17;21.77;;;17.10;99.90;;;;;;4972597;28;20494;-71
2022/07/10 03:47:40;;;;;;;22.20;20.90;;;17.00;99.90;;;;;;4972619;28;20846;-70
2022/07/10 03:50:07;;;;;;;23.23;21.73;;;17.00;99.90;;;;;;4972572;28;20460;-70
2022/07/10 03:52:35;;;;;;;22.20;20.70;;;17.00;99.90;;;;;;4973045;28;20466;-70
2022/07/10 03:55:02;;;;;;;23.07;21.60;;;16.90;99.90;;;;;;4972654;28;20455;-70
2022/07/10 04:00:13;;;;;;;21.57;20.37;;;16.90;99.90;;;;;;4972604;28;20933;-70
2022/07/10 04:02:40;;;;;;;23.93;22.33;;;16.80;99.90;;;;;;4972490;28;20459;-70
2022/07/10 04:05:08;;;;;;;21.33;20.03;;;16.70;99.90;;;;;;4972209;28;20483;-70
2022/07/10 04:07:36;;;;;;;23.70;21.87;;;16.70;99.90;;;;;;4972535;28;20465;-70
2022/07/10 04:10:03;;;;;;;22.70;21.40;;;16.80;99.90;;;;;;4972284;28;20459;-71
2022/07/10 04:12:30;;;;;;;20.87;19.77;;;16.80;99.90;;;;;;4972171;28;20451;-71
2022/07/10 04:14:56;;;;;;;21.30;19.90;;;16.90;99.90;;;;;;4972227;28;20767;-71
2022/07/10 04:17:23;;;;;;;22.43;20.93;;;17.00;99.90;;;;;;4972028;28;20953;-71
2022/07/10 04:19:50;;;;;;;21.20;19.90;;;17.10;99.90;;;;;;4972264;28;20456;-71
2022/07/10 04:22:16;;;;;;;19.73;18.47;;;17.10;99.90;;;;;;4970601;28;20451;-71
2022/07/10 04:24:44;;;;;;;19.90;18.80;;;17.30;99.90;;;;;;4971860;28;20503;-70
2022/07/10 04:27:11;;;;;;;19.60;18.20;;;17.40;99.90;;;;;;4971776;28;20491;-72
2022/07/10 04:29:38;;;;;;;20.30;19.20;;;17.60;99.90;;;;;;4971855;28;20957;-72
2022/07/10 04:32:05;;;;;;;20.00;19.00;;;17.70;99.90;;;;;;4972103;28;20829;-72
2022/07/10 04:34:32;;;;;;;20.13;19.03;;;17.80;99.90;;;;;;4972142;28;20455;-72
2022/07/10 04:36:59;;;;;;;19.30;18.20;;;17.90;99.90;;;;;;4972038;28;20464;-72
2022/07/10 04:39:26;;;;;;;19.53;18.50;;;18.00;99.90;;;;;;4971801;28;20506;-72
2022/07/10 04:41:54;;;;;;;19.53;18.43;;;17.90;99.90;;;;;;4971659;28;20455;-72
2022/07/10 04:44:21;;;;;;;18.83;17.70;;;17.80;99.90;;;;;;4971755;28;20495;-72
2022/07/10 04:46:47;;;;;;;19.40;18.20;;;17.80;99.90;;;;;;4971854;28;20818;-72
2022/07/10 04:49:14;;;;;;;17.83;16.90;;;17.80;99.90;;;;;;4971734;28;20455;-72
2022/07/10 04:51:41;;;;;;;18.00;17.00;;;17.70;99.90;;;;;;4971540;28;20973;-71
2022/07/10 04:54:08;;;;;;;18.03;17.03;;;17.60;99.90;;;;;;4971571;28;20471;-72
2022/07/10 04:56:34;;;;;;;17.37;16.40;;;17.50;99.90;;;;;;4971488;28;20463;-71
2022/07/10 04:59:03;;;;;;;17.10;15.90;;;17.50;99.90;;;;;;4964136;28;20474;-71
2022/07/10 05:01:29;;;;;;;16.20;15.30;;;17.50;99.90;;;;;;4952659;29;20472;-72
2022/07/10 05:03:56;;;;;;;15.60;14.80;;;17.50;99.90;;;;;;4954693;28;20491;-71
2022/07/10 05:06:23;;;;;;;14.57;13.77;;;17.50;99.90;;;;;;4952652;29;20461;-71
2022/07/10 05:08:50;;;;;;;16.00;15.10;;;17.60;99.90;;;;;;4953101;29;20463;-71
2022/07/10 05:11:16;;;;;;;14.70;13.90;;;17.80;99.90;;;;;;4952614;29;20464;-71
2022/07/10 05:13:45;;;;;;;15.23;14.50;;;17.90;99.90;;;;;;4952406;29;20448;-71
2022/07/10 05:16:13;;;;;;;16.57;15.67;;;17.80;99.90;;;;;;4952603;29;20917;-71
2022/07/10 05:18:40;;;;;;;15.30;14.60;;;18.00;99.90;;;;;;4952529;29;20548;-71
2022/07/10 05:21:07;;;;;;;16.30;15.40;;;17.80;99.90;;;;;;4952458;29;20938;-70
2022/07/10 05:23:34;;;;;;;16.90;15.80;;;17.80;99.90;;;;;;4952514;29;20448;-71
2022/07/10 05:26:01;;;;;;;17.47;16.40;;;17.90;99.90;;;;;;4952854;29;20488;-71
2022/07/10 05:28:27;;;;;;;17.03;16.17;;;17.80;99.90;;;;;;4953382;29;20508;-72
2022/07/10 05:30:54;;;;;;;16.43;15.63;;;17.90;99.90;;;;;;4952984;29;20496;-72
2022/07/10 05:33:22;;;;;;;18.53;17.37;;;17.90;99.90;;;;;;4953214;29;20472;-72
2022/07/10 05:35:49;;;;;;;15.93;14.77;;;18.00;99.90;;;;;;4953317;29;20461;-71
2022/07/10 05:38:17;;;;;;;14.60;13.80;;;17.90;99.90;;;;;;4953010;29;20464;-70
2022/07/10 05:40:44;;;;;;;14.80;14.10;;;17.90;99.90;;;;;;4952682;29;20539;-71
2022/07/10 05:43:11;;;;;;;14.00;13.10;;;18.00;99.90;;;;;;4952961;29;20456;-72
2022/07/10 05:45:38;;;;;;;13.83;13.13;;;18.00;99.90;;;;;;4952719;29;20481;-72
2022/07/10 05:48:05;;;;;;;13.80;12.93;;;18.00;99.90;;;;;;4952886;29;20452;-71
2022/07/10 05:50:33;;;;;;;14.27;13.57;;;17.80;99.90;;;;;;4952893;29;20453;-72
2022/07/10 05:53:00;;;;;;;13.33;12.37;;;17.70;99.90;;;;;;4952689;29;20488;-72
2022/07/10 05:55:27;;;;;;;13.40;12.70;;;17.80;99.90;;;;;;4952736;29;20440;-71
2022/07/10 05:57:54;;;;;;;13.80;13.20;;;18.10;99.90;;;;;;4955029;28;20452;-72
2022/07/10 06:00:21;;;;;;;13.03;12.43;;;18.30;99.90;;;;;;4956523;29;20459;-72
2022/07/10 06:02:48;;;;;;;12.70;12.10;;;18.70;99.90;;;;;;4956816;29;20452;-72
2022/07/10 06:05:14;;;;;;;12.43;11.83;;;19.40;99.90;;;;;;4959269;28;20495;-72
2022/07/10 06:07:42;;;;;;;12.47;11.77;;;19.60;99.90;;;;;;4963827;28;20457;-72
2022/07/10 06:10:09;;;;;;;12.07;11.57;;;19.50;99.90;;;;;;4956251;29;20475;-72
2022/07/10 06:12:37;;;;;;;12.67;12.07;;;19.70;99.90;;;;;;4956305;29;20457;-72
2022/07/10 06:15:04;;;;;;;12.13;11.63;;;19.80;99.90;;;;;;4956645;29;20460;-72
2022/07/10 06:17:30;;;;;;;11.90;11.40;;;20.00;99.90;;;;;;4956285;29;20461;-72
2022/07/10 06:19:57;;;;;;;12.23;11.37;;;20.20;99.90;;;;;;4955940;29;21109;-72
2022/07/10 06:22:33;;;;;;;11.90;11.30;;;20.60;99.90;;;;;;4956009;29;20460;-72
2022/07/10 06:25:03;;;;;;;12.73;12.03;;;20.50;99.90;;;;;;4955905;29;20586;-72
2022/07/10 06:27:30;;;;;;;12.47;11.87;;;20.70;99.90;;;;;;4955802;29;20524;-72
2022/07/10 06:29:58;;;;;;;12.93;12.07;;;21.00;99.90;;;;;;4955878;29;20876;-72
2022/07/10 06:32:25;;;;;;;12.70;12.10;;;21.20;99.90;;;;;;4955596;29;21169;-73
2022/07/10 06:34:52;;;;;;;12.77;12.07;;;21.20;99.90;;;;;;4956012;29;20459;-72
2022/07/10 06:37:20;;;;;;;12.37;11.67;;;20.60;99.90;;;;;;4955954;29;20814;-74
2022/07/10 06:39:47;;;;;;;12.23;11.43;;;20.20;99.90;;;;;;4955684;29;20466;-72
2022/07/10 06:42:16;;;;;;;11.97;11.37;;;20.00;99.90;;;;;;4955750;28;20527;-72
2022/07/10 06:44:43;;;;;;;12.37;11.87;;;19.80;99.90;;;;;;4955572;29;20488;-73
2022/07/10 06:49:56;;;;;;;12.70;11.80;;;19.80;99.90;;;;;;4955658;29;20571;-73
2022/07/10 06:52:23;;;;;;;12.00;11.50;;;19.90;99.90;;;;;;4955449;29;20681;-73
2022/07/10 06:54:49;;;;;;;12.50;11.80;;;19.80;99.90;;;;;;4955306;29;20460;-73
2022/07/10 06:57:19;;;;;;;12.37;11.67;;;19.90;99.90;;;;;;4955680;29;20452;-72
2022/07/10 06:59:46;;;;;;;13.20;12.43;;;20.10;99.90;;;;;;4955464;29;20954;-73
2022/07/10 07:02:13;;;;;;;12.50;11.90;;;20.30;99.90;;;;;;4955321;29;20464;-72
2022/07/10 07:04:39;;;;;;;11.67;11.17;;;20.20;99.90;;;;;;4955296;29;20862;-72
2022/07/10 07:07:06;;;;;;;11.50;11.00;;;19.90;99.90;;;;;;4963549;28;20467;-72
2022/07/10 07:09:33;;;;;;;11.30;10.80;;;20.00;99.90;;;;;;4957472;28;20460;-72
2022/07/10 07:11:59;;;;;;;11.93;11.23;;;20.40;99.90;;;;;;4955302;29;20452;-73
2022/07/10 07:14:27;;;;;;;11.60;11.10;;;21.00;99.90;;;;;;4955173;29;20456;-71
2022/07/10 07:17:05;;;;;;;11.70;11.10;;;21.00;99.90;;;;;;4955412;29;20449;-71
2022/07/10 07:19:32;;;;;;;11.00;10.40;;;20.70;99.90;;;;;;4955790;29;20455;-73
2022/07/10 07:24:44;;;;;;;12.20;11.50;;;21.50;99.90;;;;;;4954968;29;20495;-72
2022/07/10 07:27:11;;;;;;;12.87;11.93;;;22.10;98.20;;;;;;4954616;29;20519;-72
2022/07/10 07:29:39;;;;;;;12.37;11.40;;;21.90;98.20;;;;;;4952871;29;20456;-72
2022/07/10 07:32:06;;;;;;;11.93;11.43;;;21.40;97.20;;;;;;4951571;29;20464;-72
2022/07/10 07:34:33;;;;;;;11.27;10.77;;;20.90;98.20;;;;;;4954891;29;20456;-72
2022/07/10 07:36:59;;;;;;;11.47;11.00;;;20.60;99.60;;;;;;4954533;29;20448;-72
2022/07/10 07:39:26;;;;;;;11.70;11.10;;;20.60;99.90;;;;;;4954329;29;20483;-72
2022/07/10 07:41:53;;;;;;;11.20;10.73;;;20.80;99.80;;;;;;4954402;29;20456;-72
2022/07/10 07:44:19;;;;;;;11.30;10.70;;;20.80;99.90;;;;;;4954339;29;20464;-72
2022/07/10 07:46:48;;;;;;;12.07;11.50;;;20.70;99.90;;;;;;4954310;29;20468;-73
2022/07/10 07:49:51;;;;;;;12.10;11.50;;;20.70;99.90;;;;;;4953806;29;20452;-73
2022/07/10 07:52:18;;;;;;;11.97;11.27;;;20.70;99.90;;;;;;4953589;29;20448;-73
2022/07/10 07:54:45;;;;;;;11.50;10.80;;;20.70;99.90;;;;;;4954001;29;20830;-73
2022/07/10 07:57:12;;;;;;;10.93;10.33;;;21.00;99.80;;;;;;4954318;29;20476;-74
2022/07/10 07:59:39;;;;;;;12.83;12.13;;;21.10;99.70;;;;;;4954368;29;20460;-73
2022/07/10 08:02:07;;;;;;;10.90;10.30;;;20.90;99.90;;;;;;4954309;28;20456;-73
2022/07/10 08:04:34;;;;;;;10.70;10.30;;;20.90;98.70;;;;;;4954223;29;20488;-72
2022/07/10 08:07:02;;;;;;;11.50;10.73;;;20.70;98.60;;;;;;4954025;29;20465;-73
2022/07/10 08:09:28;;;;;;;10.23;9.70;;;20.60;99.00;;;;;;4953615;29;20515;-73
2022/07/10 08:11:55;;;;;;;10.83;10.43;;;20.70;98.40;;;;;;4953799;29;20457;-73
2022/07/10 08:14:22;;;;;;;11.73;11.03;;;21.30;97.40;;;;;;4953722;29;20882;-73
2022/07/10 08:16:50;;;;;;;11.30;10.80;;;21.60;95.90;;;;;;4953649;29;20464;-73
2022/07/10 08:19:18;;;;;;;11.43;10.93;;;22.00;95.50;;;;;;4952848;28;20955;-74
2022/07/10 08:21:45;;;;;;;10.67;10.17;;;23.10;94.30;;;;;;4952440;29;20456;-74
2022/07/10 08:24:12;;;;;;;11.20;10.60;;;24.20;91.00;;;;;;4952079;29;21002;-74
2022/07/10 08:26:38;;;;;;;12.73;11.90;;;25.10;88.20;;;;;;4951968;29;20493;-74
2022/07/10 08:29:05;;;;;;;11.67;11.10;;;25.30;84.60;;;;;;4952308;29;20449;-74
2022/07/10 08:31:32;;;;;;;11.43;11.03;;;24.50;87.30;;;;;;4950765;29;20791;-74
2022/07/10 08:33:59;;;;;;;11.40;10.60;;;24.50;88.70;;;;;;4952506;29;20678;-75
2022/07/10 08:36:27;;;;;;;12.20;11.40;;;24.70;89.10;;;;;;4952863;29;20449;-75
2022/07/10 08:38:55;;;;;;;11.33;10.83;;;24.30;88.00;;;;;;4952523;29;20468;-75
2022/07/10 08:41:25;;;;;;;10.97;10.37;;;24.10;88.90;;;;;;4950983;29;20519;-73
2022/07/10 08:43:52;;;;;;;12.00;11.27;;;23.50;89.80;;;;;;4952668;29;20467;-73
2022/07/10 08:46:19;;;;;;;11.67;10.97;;;23.10;91.00;;;;;;4952477;29;20511;-73
2022/07/10 08:48:48;;;;;;;10.87;10.47;;;22.60;91.70;;;;;;4952623;29;20460;-74
2022/07/10 08:51:25;;;;;;;10.77;10.27;;;22.30;92.50;;;;;;4952455;29;20462;-75
2022/07/10 08:53:54;;;;;;;11.80;11.07;;;21.90;93.00;;;;;;4952597;28;20492;-74
2022/07/10 08:56:21;;;;;;;11.10;10.60;;;21.70;93.20;;;;;;4952362;29;20840;-72
2022/07/10 08:58:50;;;;;;;11.10;10.70;;;22.40;92.10;;;;;;4952304;29;20475;-72
2022/07/10 09:01:22;;;;;;;11.33;10.80;;;23.00;90.50;;;;;;4952381;29;20453;-73
2022/07/10 09:03:49;;;;;;;11.20;10.80;;;24.20;89.30;;;;;;4952377;29;20511;-73
2022/07/10 09:06:16;;;;;;;12.30;11.50;;;25.10;83.40;;;;;;4951973;29;20489;-73
2022/07/10 09:09:00;;;;;;;10.87;10.40;;;24.50;83.60;;;;;;4950274;29;20459;-73
2022/07/10 09:11:29;;;;;;;11.23;10.43;;;24.30;86.00;;;;;;4951939;29;20456;-74
2022/07/10 09:13:58;;;;;;;10.50;10.00;;;24.20;84.40;;;;;;4952319;28;20503;-73
2022/07/10 09:16:25;;;;;;;11.10;10.50;;;23.80;85.50;;;;;;4951899;29;20452;-73
2022/07/10 09:18:52;;;;;;;11.57;10.97;;;24.10;84.90;;;;;;4951848;29;20463;-73
2022/07/10 09:21:19;;;;;;;11.40;10.90;;;23.40;85.80;;;;;;4952409;29;20449;-75
2022/07/10 09:23:46;;;;;;;11.20;10.60;;;22.80;86.70;;;;;;4951941;29;20464;-73
2022/07/10 09:26:14;;;;;;;10.60;10.20;;;23.30;87.00;;;;;;4951508;29;20492;-73
2022/07/10 09:28:40;;;;;;;11.50;11.00;;;25.30;81.80;;;;;;4951894;29;20460;-74
2022/07/10 09:31:07;;;;;;;10.93;10.43;;;26.90;74.10;;;;;;4951825;28;20456;-74
2022/07/10 09:33:35;;;;;;;11.40;10.80;;;27.40;72.70;;;;;;4955683;29;20924;-74
2022/07/10 09:36:07;;;;;;;11.60;11.00;;;27.10;70.70;;;;;;4956212;29;20448;-75
2022/07/10 09:39:00;;;;;;;11.73;11.23;;;27.10;69.80;;;;;;4956039;29;20460;-75
2022/07/10 09:41:32;;;;;;;11.83;11.40;;;28.00;69.40;;;;;;4955765;29;20700;-75
2022/07/10 09:44:00;;;;;;;11.40;11.00;;;28.10;65.70;;;;;;4955559;29;20563;-75
2022/07/10 09:46:31;;;;;;;12.60;12.10;;;26.50;67.50;;;;;;4955570;29;20622;-75
2022/07/10 09:49:09;;;;;;;10.60;10.20;;;25.00;71.90;;;;;;4955563;29;20452;-75
2022/07/10 09:51:39;;;;;;;11.83;11.13;;;25.00;72.80;;;;;;4955491;29;20460;-75
2022/07/10 09:54:08;;;;;;;11.00;10.50;;;26.20;71.40;;;;;;4953543;29;20456;-75
2022/07/10 09:56:42;;;;;;;11.13;10.63;;;27.40;67.10;;;;;;4955635;29;20482;-75
2022/07/10 09:59:10;;;;;;;11.13;10.60;;;27.20;64.40;;;;;;4955388;29;20463;-75
2022/07/10 10:01:38;;;;;;;11.20;10.70;;;27.30;64.70;;;;;;4955505;28;20452;-75
2022/07/10 10:04:06;;;;;;;11.57;11.10;;;27.30;65.30;;;;;;4955547;29;20812;-74
2022/07/10 10:06:36;;;;;;;11.43;10.93;;;27.10;64.50;;;;;;4955207;29;20496;-75
2022/07/10 10:09:06;;;;;;;10.70;10.30;;;26.90;65.40;;;;;;4955287;29;20831;-75
2022/07/10 10:11:36;;;;;;;10.57;10.17;;;26.20;65.50;;;;;;4955415;28;20547;-75
2022/07/10 10:14:03;;;;;;;11.07;10.57;;;26.60;66.30;;;;;;4955502;29;20947;-75
2022/07/10 10:16:30;;;;;;;11.67;11.27;;;27.20;64.70;;;;;;4955172;29;20762;-75
2022/07/10 10:21:42;;;;;;;11.47;10.83;;;28.90;59.30;;;;;;4955053;29;20489;-75
2022/07/10 10:24:09;;;;;;;12.60;11.80;;;27.60;61.00;;;;;;4954878;29;20461;-75
2022/07/10 10:26:37;;;;;;;11.57;11.00;;;26.90;62.50;;;;;;4954819;28;20500;-75
2022/07/10 10:29:06;;;;;;;11.47;10.90;;;25.60;65.00;;;;;;4954920;29;20961;-75
2022/07/10 10:31:34;;;;;;;11.70;11.20;;;26.10;66.20;;;;;;4955023;28;20880;-75
2022/07/10 10:34:01;;;;;;;10.80;10.30;;;26.00;64.60;;;;;;4954568;29;20953;-75
2022/07/10 10:36:45;;;;;;;12.73;12.23;;;26.90;63.20;;;;;;4954678;29;20531;-74
2022/07/10 10:39:13;;;;;;;12.30;11.70;;;28.30;60.70;;;;;;4954459;29;20448;-75
2022/07/10 10:41:42;;;;;;;12.30;11.90;;;28.90;57.70;;;;;;4954625;28;20511;-75
2022/07/10 10:44:37;;;;;;;11.73;11.13;;;28.10;58.70;;;;;;4952331;28;20480;-75
2022/07/10 10:47:06;;;;;;;11.73;11.33;;;28.00;59.70;;;;;;4954818;29;20942;-75
2022/07/10 10:49:58;;;;;;;12.00;11.40;;;28.10;58.00;;;;;;4954776;29;20468;-75
2022/07/10 10:52:26;;;;;;;12.60;12.10;;;27.80;58.30;;;;;;4954390;29;20456;-75
2022/07/10 10:55:03;;;;;;;11.53;10.93;;;27.40;60.90;;;;;;4954106;29;20969;-75
2022/07/10 10:57:44;;;;;;;11.37;10.90;;;26.90;59.80;;;;;;4954021;28;20477;-74
2022/07/10 11:00:14;;;;;;;11.07;10.60;;;26.30;62.40;;;;;;4954126;28;20509;-75
2022/07/10 11:02:41;;;;;;;10.43;10.03;;;26.80;62.00;;;;;;4952316;29;20459;-76
2022/07/10 11:05:43;;;;;;;11.40;10.87;;;27.60;60.10;;;;;;4952331;29;20457;-75
2022/07/10 11:08:11;;;;;;;12.20;11.60;;;28.50;58.80;;;;;;4954490;29;20456;-74
2022/07/10 11:10:39;;;;;;;12.10;11.30;;;28.50;57.90;;;;;;4954047;29;20456;-73
2022/07/10 11:13:08;;;;;;;12.10;11.50;;;27.90;58.60;;;;;;4953570;29;20460;-76
2022/07/10 11:15:38;;;;;;;10.63;10.23;;;27.00;60.30;;;;;;4953487;29;20457;-75
2022/07/10 11:18:09;;;;;;;11.50;10.83;;;26.10;63.90;;;;;;4953748;29;20821;-75
2022/07/10 11:20:38;;;;;;;10.63;10.23;;;25.80;64.50;;;;;;4953744;29;20460;-75
2022/07/10 11:23:24;;;;;;;11.50;10.90;;;26.70;61.90;;;;;;4953824;29;20468;-75
2022/07/10 11:26:01;;;;;;;11.43;11.03;;;27.80;59.30;;;;;;4953620;29;20496;-76
2022/07/10 11:28:41;;;;;;;11.97;11.47;;;28.80;58.20;;;;;;4953654;29;20919;-76
2022/07/10 11:31:08;;;;;;;11.17;10.73;;;28.50;58.00;;;;;;4953489;29;20460;-75
2022/07/10 11:33:42;;;;;;;12.47;11.37;;;29.00;56.30;;;;;;4953916;29;20480;-75
2022/07/10 11:36:13;;;;;;;12.20;11.70;;;28.00;56.30;;;;;;4953698;29;20536;-76
2022/07/10 11:38:40;;;;;;;12.07;11.57;;;27.40;57.70;;;;;;4953269;29;20467;-75
2022/07/10 11:41:13;;;;;;;12.27;11.67;;;26.50;59.60;;;;;;4953849;28;20535;-75
2022/07/10 11:43:48;;;;;;;12.20;11.60;;;26.10;61.10;;;;;;4953666;29;20863;-76
2022/07/10 11:46:15;;;;;;;11.60;11.00;;;27.50;59.90;;;;;;4953829;29;20589;-76
2022/07/10 11:48:42;;;;;;;11.33;10.83;;;28.10;56.30;;;;;;4951827;29;20452;-75
2022/07/10 11:51:22;;;;;;;12.00;11.50;;;28.70;54.80;;;;;;4953534;29;20548;-75
2022/07/10 11:53:58;;;;;;;12.77;12.00;;;29.60;54.90;;;;;;4953452;28;20993;-75
2022/07/10 11:56:25;;;;;;;11.80;11.20;;;29.20;53.20;;;;;;4952862;28;20476;-76
2022/07/10 11:58:58;;;;;;;11.40;10.83;;;27.10;56.50;;;;;;4953284;29;20488;-76
2022/07/10 12:01:25;;;;;;;11.23;10.83;;;26.20;57.50;;;;;;4953415;28;20773;-76
2022/07/10 12:03:59;;;;;;;12.30;11.70;;;25.80;58.60;;;;;;4951592;29;20487;-75
2022/07/10 12:06:27;;;;;;;11.27;10.57;;;25.70;59.70;;;;;;4953267;29;20488;-75
2022/07/10 12:08:55;;;;;;;11.13;10.70;;;25.60;60.10;;;;;;4953121;29;20453;-74
2022/07/10 12:11:22;;;;;;;10.43;9.93;;;24.90;61.60;;;;;;4953391;29;20463;-74
2022/07/10 12:13:51;;;;;;;11.20;10.20;;;24.40;63.10;;;;;;4953448;29;20448;-75
2022/07/10 12:16:19;;;;;;;11.00;10.57;;;24.20;62.60;;;;;;4953359;29;20452;-75
2022/07/10 12:18:47;;;;;;;10.60;10.20;;;25.00;62.40;;;;;;4953279;29;20478;-75
2022/07/10 12:21:15;;;;;;;10.80;10.07;;;25.90;59.10;;;;;;4953261;29;20464;-73
2022/07/10 12:23:44;;;;;;;10.47;9.97;;;26.60;57.90;;;;;;4952956;28;20530;-75
2022/07/10 12:26:11;;;;;;;10.80;10.33;;;27.40;56.70;;;;;;4952329;29;20583;-76
2022/07/10 12:28:55;;;;;;;11.20;10.80;;;27.60;54.20;;;;;;4952964;29;20539;-75
2022/07/10 12:31:26;;;;;;;11.43;10.83;;;28.40;54.40;;;;;;4952837;29;20822;-75
2022/07/10 12:33:57;;;;;;;10.87;10.40;;;27.50;54.40;;;;;;4952638;29;20851;-75
2022/07/10 12:36:25;;;;;;;12.10;11.60;;;26.40;56.50;;;;;;4952590;29;20547;-75
2022/07/10 12:38:57;;;;;;;11.83;11.33;;;25.50;58.70;;;;;;4952202;29;20460;-75
2022/07/10 12:41:25;;;;;;;10.50;10.00;;;26.30;57.00;;;;;;4952218;29;20456;-76
2022/07/10 12:43:54;;;;;;;11.30;10.77;;;27.40;55.40;;;;;;4952345;29;20473;-75
2022/07/10 12:46:22;;;;;;;12.33;11.73;;;27.90;52.90;;;;;;4952374;29;20495;-75
2022/07/10 12:49:07;;;;;;;11.90;11.40;;;28.90;52.60;;;;;;4952462;29;20947;-75
2022/07/10 12:51:35;;;;;;;11.60;11.10;;;28.80;52.90;;;;;;4952672;29;20464;-75
2022/07/10 12:54:02;;;;;;;10.50;10.00;;;27.50;56.20;;;;;;4952425;29;20460;-75
2022/07/10 12:56:34;;;;;;;10.70;10.20;;;26.70;54.80;;;;;;4952126;29;20460;-75
2022/07/10 12:59:02;;;;;;;10.60;10.20;;;25.20;57.20;;;;;;4952316;29;20456;-75
2022/07/10 13:01:30;;;;;;;11.07;10.40;;;25.40;57.20;;;;;;4952164;29;20456;-74
2022/07/10 13:04:01;;;;;;;10.70;10.20;;;25.40;57.30;;;;;;4952219;29;20854;-75
2022/07/10 13:06:30;;;;;;;11.90;11.00;;;25.60;58.00;;;;;;4952219;28;20488;-75
2022/07/10 13:08:58;;;;;;;10.33;9.93;;;26.20;56.30;;;;;;4952173;29;20456;-74
2022/07/10 13:11:25;;;;;;;10.40;9.97;;;26.30;55.70;;;;;;4952223;29;20456;-74
2022/07/10 13:13:52;;;;;;;10.30;9.90;;;26.70;56.00;;;;;;4952233;29;20452;-74
2022/07/10 13:16:18;;;;;;;10.80;10.40;;;27.10;55.60;;;;;;4952407;29;20826;-75
2022/07/10 13:18:45;;;;;;;10.90;10.40;;;27.90;53.90;;;;;;4952235;29;20463;-75
2022/07/10 13:21:12;;;;;;;10.63;10.13;;;27.90;53.30;;;;;;4951995;29;20456;-75
2022/07/10 13:23:42;;;;;;;10.67;10.27;;;27.90;53.40;;;;;;4951937;28;20484;-75
2022/07/10 13:26:09;;;;;;;10.63;10.13;;;27.50;53.90;;;;;;4951868;29;20503;-75
2022/07/10 13:28:36;;;;;;;11.37;10.53;;;26.60;54.70;;;;;;4952247;29;20464;-75
2022/07/10 13:31:03;;;;;;;10.50;9.90;;;26.10;55.20;;;;;;4952575;29;20459;-75
2022/07/10 13:33:29;;;;;;;9.90;9.40;;;25.90;55.60;;;;;;4950307;29;20480;-74
2022/07/10 13:35:56;;;;;;;9.90;9.50;;;25.60;55.80;;;;;;4952085;29;20456;-75
2022/07/10 13:38:25;;;;;;;10.70;10.27;;;25.80;56.40;;;;;;4952039;29;20453;-74
2022/07/10 13:40:53;;;;;;;10.20;9.80;;;25.90;56.50;;;;;;4952168;29;20460;-74
2022/07/10 13:43:20;;;;;;;10.83;10.33;;;26.60;55.00;;;;;;4952262;29;20456;-74
2022/07/10 13:45:48;;;;;;;11.07;10.60;;;26.60;55.20;;;;;;4952482;28;20457;-74
2022/07/10 13:48:16;;;;;;;10.80;10.40;;;26.90;54.20;;;;;;4952196;29;20496;-75
2022/07/10 13:50:46;;;;;;;10.50;10.10;;;26.10;55.40;;;;;;4952046;29;20475;-74
2022/07/10 13:53:13;;;;;;;10.63;10.13;;;25.10;58.50;;;;;;4952072;29;20460;-73
2022/07/10 13:55:40;;;;;;;11.10;10.60;;;24.40;58.10;;;;;;4951927;29;20725;-74
2022/07/10 13:58:09;;;;;;;11.67;11.00;;;24.70;58.50;;;;;;4951980;28;20448;-74
2022/07/10 14:00:36;;;;;;;11.00;10.60;;;25.70;57.40;;;;;;4951761;28;20480;-73
2022/07/10 14:03:03;;;;;;;10.03;9.57;;;25.60;57.50;;;;;;4951900;29;20461;-74
2022/07/10 14:05:30;;;;;;;10.70;10.33;;;25.00;57.70;;;;;;4951911;29;20464;-74
2022/07/10 14:07:57;;;;;;;10.63;10.10;;;25.20;58.50;;;;;;4951667;28;20494;-74
2022/07/10 14:10:24;;;;;;;10.70;10.20;;;25.10;57.80;;;;;;4951941;29;20463;-74
2022/07/10 14:12:52;;;;;;;10.30;9.90;;;25.30;57.90;;;;;;4952124;29;20456;-74
2022/07/10 14:15:20;;;;;;;10.63;10.03;;;25.20;57.60;;;;;;4951928;29;20444;-74
2022/07/10 14:17:47;;;;;;;10.77;10.37;;;24.10;59.30;;;;;;4952431;28;20452;-74
2022/07/10 14:20:14;;;;;;;10.60;10.20;;;23.50;60.10;;;;;;4955423;29;20515;-74
2022/07/10 14:22:41;;;;;;;10.90;10.40;;;23.50;61.10;;;;;;4955439;29;20460;-74
2022/07/10 14:25:09;;;;;;;10.87;10.20;;;24.00;59.90;;;;;;4955242;29;20837;-74
2022/07/10 14:27:35;;;;;;;10.50;10.00;;;23.80;60.30;;;;;;4955262;28;20604;-75
2022/07/10 14:30:05;;;;;;;10.80;10.40;;;24.30;59.80;;;;;;4955569;29;20464;-75
2022/07/10 14:32:33;;;;;;;9.83;9.47;;;25.10;58.10;;;;;;4955727;28;20464;-74
2022/07/10 14:34:59;;;;;;;10.87;10.47;;;24.60;57.20;;;;;;4955084;29;20460;-74
2022/07/10 14:37:26;;;;;;;9.70;9.30;;;24.00;58.40;;;;;;4954976;29;20460;-74
2022/07/10 14:39:53;;;;;;;10.33;9.73;;;24.00;58.90;;;;;;4954893;29;20452;-73
2022/07/10 14:42:19;;;;;;;10.50;10.00;;;23.90;59.00;;;;;;4955066;29;20452;-73
2022/07/10 14:44:46;;;;;;;10.23;9.70;;;24.30;59.00;;;;;;4955110;29;20889;-74
2022/07/10 14:47:14;;;;;;;9.80;9.40;;;24.20;58.80;;;;;;4954948;29;20841;-74
2022/07/10 14:49:43;;;;;;;9.20;8.80;;;24.10;59.20;;;;;;4954839;28;20468;-73
2022/07/10 14:52:09;;;;;;;9.70;9.30;;;24.30;59.20;;;;;;4955100;29;20449;-74
2022/07/10 14:54:36;;;;;;;9.90;9.50;;;24.80;59.50;;;;;;4955028;29;20453;-73
2022/07/10 14:57:04;;;;;;;10.17;9.67;;;24.80;58.30;;;;;;4955232;29;20464;-73
2022/07/10 14:59:31;;;;;;;10.23;9.70;;;24.70;58.30;;;;;;4955110;28;20912;-74
2022/07/10 15:01:57;;;;;;;9.80;9.40;;;24.90;58.30;;;;;;4954880;29;20459;-74
2022/07/10 15:04:24;;;;;;;10.83;10.33;;;25.00;57.70;;;;;;4954678;29;20456;-73
2022/07/10 15:06:52;;;;;;;10.00;9.70;;;24.70;57.80;;;;;;4954740;29;20484;-73
2022/07/10 15:09:19;;;;;;;11.07;10.60;;;24.60;58.10;;;;;;4954705;29;20875;-73
2022/07/10 15:11:45;;;;;;;9.80;9.30;;;24.00;59.10;;;;;;4954788;29;20452;-73